createdAt,value
2023-02-10T00:01:27.002Z,15.57
2023-02-10T00:03:54.397Z,15.65
2023-02-10T00:06:24.593Z,15.82
2023-02-10T00:08:53.023Z,14.13
2023-02-10T00:11:22.524Z,16.20
2023-02-10T00:13:49.399Z,15.25
2023-02-10T00:16:16.561Z,14.25
2023-02-10T00:18:43.349Z,15.43
2023-02-10T00:21:15.496Z,16.48
2023-02-10T00:23:42.694Z,13.93
2023-02-10T00:26:12.648Z,15.25
2023-02-10T00:28:39.422Z,13.50
2023-02-10T00:31:10.653Z,16.30
2023-02-10T00:33:37.777Z,14.15
2023-02-10T00:36:09.677Z,14.52
2023-02-10T00:38:36.737Z,14.10
2023-02-10T00:41:15.472Z,17.48
2023-02-10T00:43:43.776Z,15.90
2023-02-10T00:46:10.875Z,16.42
2023-02-10T00:48:37.526Z,14.75
2023-02-10T00:51:05.352Z,16.27
2023-02-10T00:53:32.620Z,15.60
2023-02-10T00:55:59.274Z,15.60
2023-02-10T00:58:26.468Z,15.55
2023-02-10T01:00:54.698Z,16.17
2023-02-10T01:03:22.028Z,14.60
2023-02-10T01:05:49.425Z,16.75
2023-02-10T01:08:16.536Z,15.70
2023-02-10T01:10:43.654Z,14.52
2023-02-10T01:13:11.807Z,16.05
2023-02-10T01:15:43.789Z,15.27
2023-02-10T01:18:10.591Z,14.82
2023-02-10T01:20:40.526Z,18.23
2023-02-10T01:23:07.938Z,16.75
2023-02-10T01:25:35.801Z,15.55
2023-02-10T01:28:03.752Z,13.23
2023-02-10T01:30:30.729Z,17.00
2023-02-10T01:32:57.680Z,16.02
2023-02-10T01:35:24.635Z,14.10
2023-02-10T01:37:51.417Z,14.60
2023-02-10T01:40:18.451Z,13.20
2023-02-10T01:42:46.971Z,13.32
2023-02-10T01:45:14.194Z,13.55
2023-02-10T01:47:43.013Z,14.40
2023-02-10T01:50:10.154Z,14.10
2023-02-10T01:52:37.311Z,12.45
2023-02-10T01:55:11.141Z,14.95
2023-02-10T01:57:41.064Z,13.40
2023-02-10T02:00:08.901Z,14.05
2023-02-10T02:02:36.387Z,13.80
2023-02-10T02:05:21.210Z,13.77
2023-02-10T02:07:49.191Z,14.27
2023-02-10T02:10:16.343Z,14.68
2023-02-10T02:12:56.901Z,13.65
2023-02-10T02:15:43.391Z,12.32
2023-02-10T02:18:35.288Z,12.80
2023-02-10T02:21:35.231Z,12.13
2023-02-10T02:24:20.718Z,8.37
2023-02-10T02:27:11.519Z,11.05
2023-02-10T02:32:24.532Z,10.27
2023-02-10T02:35:00.793Z,12.38
2023-02-10T02:37:32.551Z,11.48
2023-02-10T02:39:59.250Z,8.68
2023-02-10T02:42:31.539Z,11.65
2023-02-10T02:45:07.051Z,11.85
2023-02-10T02:47:55.830Z,10.07
2023-02-10T02:50:28.242Z,11.65
2023-02-10T02:53:17.282Z,13.40
2023-02-10T02:56:01.387Z,10.65
2023-02-10T02:58:54.176Z,11.35
2023-02-10T03:01:35.043Z,9.10
2023-02-10T03:04:02.722Z,10.38
2023-02-10T03:06:29.553Z,10.77
2023-02-10T03:08:56.399Z,11.00
2023-02-10T03:11:23.062Z,9.90
2023-02-10T03:13:49.724Z,10.57
2023-02-10T03:16:16.412Z,10.65
2023-02-10T03:18:43.123Z,12.65
2023-02-10T03:21:09.767Z,11.43
2023-02-10T03:23:36.402Z,11.80
2023-02-10T03:26:03.144Z,9.75
2023-02-10T03:28:29.921Z,12.02
2023-02-10T03:30:56.748Z,11.60
2023-02-10T03:33:23.850Z,12.13
2023-02-10T03:35:53.831Z,11.40
2023-02-10T03:38:21.677Z,11.18
2023-02-10T03:40:51.551Z,12.52
2023-02-10T03:43:18.715Z,10.80
2023-02-10T03:45:45.570Z,10.57
2023-02-10T03:48:13.358Z,11.98
2023-02-10T03:50:40.534Z,13.88
2023-02-10T03:53:07.224Z,10.80
2023-02-10T03:55:34.004Z,12.93
2023-02-10T03:58:02.208Z,11.13
2023-02-10T04:00:29.835Z,13.15
2023-02-10T04:02:57.098Z,11.75
2023-02-10T04:05:23.805Z,11.18
2023-02-10T04:07:50.442Z,11.68
2023-02-10T04:10:17.149Z,13.10
2023-02-10T04:12:43.807Z,12.98
2023-02-10T04:15:10.568Z,11.60
2023-02-10T04:17:37.171Z,11.20
2023-02-10T04:20:04.264Z,15.30
2023-02-10T04:22:30.955Z,11.52
2023-02-10T04:24:57.706Z,11.45
2023-02-10T04:27:24.463Z,10.23
2023-02-10T04:29:51.220Z,10.95
2023-02-10T04:32:17.878Z,13.30
2023-02-10T04:34:44.511Z,10.65
2023-02-10T04:37:11.476Z,10.85
2023-02-10T04:39:38.158Z,9.30
2023-02-10T04:42:04.847Z,12.50
2023-02-10T04:44:31.524Z,11.38
2023-02-10T04:46:58.340Z,11.60
2023-02-10T04:49:25.830Z,11.00
2023-02-10T04:51:52.476Z,12.07
2023-02-10T04:54:19.309Z,10.48
2023-02-10T04:56:46.095Z,11.75
2023-02-10T04:59:13.662Z,11.80
2023-02-10T05:01:40.476Z,9.82
2023-02-10T05:04:07.382Z,11.63
2023-02-10T05:06:34.158Z,9.70
2023-02-10T05:09:00.997Z,10.98
2023-02-10T05:11:27.716Z,11.43
2023-02-10T05:13:54.681Z,13.43
2023-02-10T05:16:21.508Z,9.95
2023-02-10T05:18:48.153Z,10.82
2023-02-10T05:21:15.362Z,12.00
2023-02-10T05:23:42.471Z,11.93
2023-02-10T05:26:09.295Z,10.70
2023-02-10T05:28:36.189Z,12.23
2023-02-10T05:31:05.791Z,11.40
2023-02-10T05:33:32.516Z,12.13
2023-02-10T05:35:59.154Z,13.32
2023-02-10T05:38:27.371Z,12.25
2023-02-10T05:40:54.603Z,11.82
2023-02-10T05:43:21.258Z,12.23
2023-02-10T05:45:48.851Z,10.70
2023-02-10T05:48:15.719Z,12.68
2023-02-10T05:50:42.572Z,10.82
2023-02-10T05:53:10.041Z,11.50
2023-02-10T05:55:37.284Z,11.80
2023-02-10T05:58:05.192Z,13.20
2023-02-10T06:00:33.073Z,13.95
2023-02-10T06:02:59.738Z,9.65
2023-02-10T06:05:26.362Z,11.35
2023-02-10T06:07:55.692Z,10.70
2023-02-10T06:10:22.804Z,12.35
2023-02-10T06:12:50.438Z,11.80
2023-02-10T06:15:17.233Z,12.35
2023-02-10T06:17:44.540Z,11.48
2023-02-10T06:20:11.428Z,13.38
2023-02-10T06:22:38.054Z,13.10
2023-02-10T06:25:05.006Z,11.43
2023-02-10T06:27:31.651Z,10.73
2023-02-10T06:29:58.298Z,11.15
2023-02-10T06:32:25.141Z,12.95
2023-02-10T06:34:51.738Z,11.88
2023-02-10T06:37:18.582Z,11.45
2023-02-10T06:39:45.195Z,10.75
2023-02-10T06:42:11.804Z,12.00
2023-02-10T06:44:38.544Z,10.52
2023-02-10T06:47:05.341Z,12.18
2023-02-10T06:49:31.957Z,10.52
2023-02-10T06:51:58.670Z,10.57
2023-02-10T06:54:25.340Z,11.90
2023-02-10T06:56:52.038Z,10.13
2023-02-10T06:59:18.723Z,11.68
2023-02-10T07:01:45.371Z,12.70
2023-02-10T07:04:12.349Z,11.32
2023-02-10T07:06:39.439Z,11.18
2023-02-10T07:09:06.683Z,12.25
2023-02-10T07:11:34.654Z,12.95
2023-02-10T07:14:01.532Z,13.40
2023-02-10T07:16:29.298Z,14.45
2023-02-10T07:18:55.972Z,15.02
2023-02-10T07:21:22.570Z,15.25
2023-02-10T07:23:49.235Z,13.68
2023-02-10T07:26:18.802Z,14.00
2023-02-10T07:28:45.781Z,15.85
2023-02-10T07:31:12.772Z,16.95
2023-02-10T07:33:39.580Z,18.02
2023-02-10T07:36:07.580Z,14.00
2023-02-10T07:38:34.345Z,14.07
2023-02-10T07:41:01.091Z,13.40
2023-02-10T07:43:27.744Z,14.30
2023-02-10T07:45:54.575Z,16.88
2023-02-10T07:48:21.269Z,14.35
2023-02-10T07:50:49.035Z,14.65
2023-02-10T07:53:15.860Z,14.20
2023-02-10T07:55:42.587Z,12.88
2023-02-10T07:58:09.214Z,14.25
2023-02-10T08:00:37.213Z,12.75
2023-02-10T08:03:06.229Z,13.77
2023-02-10T08:05:33.280Z,16.13
2023-02-10T08:07:59.950Z,14.27
2023-02-10T08:10:26.599Z,12.48
2023-02-10T08:12:53.769Z,11.70
2023-02-10T08:15:22.486Z,13.60
2023-02-10T08:17:49.168Z,12.23
2023-02-10T08:20:15.865Z,12.38
2023-02-10T08:22:42.561Z,12.50
2023-02-10T08:25:09.825Z,13.35
2023-02-10T08:27:36.473Z,12.77
2023-02-10T08:30:06.792Z,13.15
2023-02-10T08:32:33.544Z,12.65
2023-02-10T08:35:02.916Z,10.80
2023-02-10T08:37:29.575Z,13.55
2023-02-10T08:39:56.480Z,12.15
2023-02-10T08:42:23.195Z,11.02
2023-02-10T08:44:49.870Z,10.68
2023-02-10T08:47:16.701Z,10.33
2023-02-10T08:49:43.927Z,10.18
2023-02-10T08:52:10.707Z,10.18
2023-02-10T08:54:37.706Z,11.38
2023-02-10T08:57:04.376Z,9.32
2023-02-10T08:59:31.136Z,10.60
2023-02-10T09:01:57.859Z,11.27
2023-02-10T09:04:24.605Z,12.55
2023-02-10T09:06:51.296Z,11.00
2023-02-10T09:09:23.280Z,9.90
2023-02-10T09:11:50.079Z,11.48
2023-02-10T09:14:16.731Z,11.50
2023-02-10T09:16:43.927Z,11.98
2023-02-10T09:19:10.617Z,11.63
2023-02-10T09:21:46.657Z,11.27
2023-02-10T09:24:14.394Z,11.98
2023-02-10T09:26:41.209Z,12.13
2023-02-10T09:29:09.340Z,13.25
2023-02-10T09:31:36.728Z,11.05
2023-02-10T09:34:03.946Z,12.43
2023-02-10T09:36:32.874Z,12.02
2023-02-10T09:38:59.609Z,12.88
2023-02-10T09:41:36.175Z,12.20
2023-02-10T09:44:27.263Z,13.05
2023-02-10T09:47:22.288Z,12.07
2023-02-10T09:50:25.949Z,12.02
2023-02-10T09:53:10.970Z,11.80
2023-02-10T09:55:41.769Z,12.75
2023-02-10T10:00:43.972Z,11.50
2023-02-10T10:03:19.514Z,11.55
2023-02-10T10:06:14.957Z,13.85
2023-02-10T10:09:06.278Z,12.65
2023-02-10T10:11:50.710Z,11.60
2023-02-10T10:14:23.237Z,12.65
2023-02-10T10:17:06.990Z,13.07
2023-02-10T10:19:55.950Z,12.13
2023-02-10T10:22:46.869Z,13.77
2023-02-10T10:25:42.537Z,12.75
2023-02-10T10:28:34.249Z,13.40
2023-02-10T10:31:18.544Z,12.18
2023-02-10T10:33:50.366Z,13.05
2023-02-10T10:36:20.204Z,13.90
2023-02-10T10:39:00.923Z,12.75
2023-02-10T10:41:32.585Z,13.02
2023-02-10T10:43:59.254Z,13.60
2023-02-10T10:46:47.791Z,14.18
2023-02-10T10:49:17.666Z,12.82
2023-02-10T10:51:44.398Z,13.40
2023-02-10T10:54:17.760Z,14.38
2023-02-10T10:57:03.126Z,13.40
2023-02-10T10:59:43.967Z,13.98
2023-02-10T11:02:20.011Z,13.10
2023-02-10T11:04:47.136Z,12.85
2023-02-10T11:07:20.332Z,13.25
2023-02-10T11:09:52.471Z,13.52
2023-02-10T11:12:28.189Z,14.32
2023-02-10T11:14:55.844Z,13.50
2023-02-10T11:17:37.339Z,11.63
2023-02-10T11:20:13.234Z,12.88
2023-02-10T11:22:41.251Z,12.90
2023-02-10T11:25:30.654Z,11.65
2023-02-10T11:28:00.075Z,11.77
2023-02-10T11:30:29.719Z,11.40
2023-02-10T11:32:57.388Z,12.95
2023-02-10T11:35:25.876Z,13.35
2023-02-10T11:37:55.756Z,13.55
2023-02-10T11:40:30.757Z,12.85
2023-02-10T11:43:04.085Z,12.15
2023-02-10T11:45:32.577Z,12.70
2023-02-10T11:48:22.725Z,10.82
2023-02-10T11:51:00.450Z,12.87
2023-02-10T11:53:30.607Z,11.60
2023-02-10T11:56:48.524Z,12.25
2023-02-10T11:59:32.501Z,11.65
2023-02-10T12:02:20.760Z,12.35
2023-02-10T12:04:54.670Z,10.43
2023-02-10T12:07:27.193Z,11.63
2023-02-10T12:10:00.573Z,10.77
2023-02-10T12:12:55.033Z,10.70
2023-02-10T12:15:21.662Z,9.35
2023-02-10T12:18:26.067Z,11.43
2023-02-10T12:21:21.650Z,11.00
2023-02-10T12:24:22.040Z,10.73
2023-02-10T12:26:59.007Z,12.05
2023-02-10T12:29:50.629Z,11.75
2023-02-10T12:32:44.301Z,10.35
2023-02-10T12:35:27.523Z,11.45
2023-02-10T12:38:28.055Z,11.25
2023-02-10T12:41:24.499Z,11.35
2023-02-10T12:44:00.907Z,12.35
2023-02-10T12:46:38.421Z,11.07
2023-02-10T12:49:11.466Z,10.85
2023-02-10T12:51:51.815Z,10.65
2023-02-10T12:54:42.466Z,8.13
2023-02-10T12:57:20.301Z,10.98
2023-02-10T12:59:59.520Z,11.85
2023-02-10T13:02:50.512Z,10.82
2023-02-10T13:08:01.271Z,10.25
2023-02-10T13:10:31.900Z,11.30
2023-02-10T13:13:19.417Z,11.48
2023-02-10T13:16:03.160Z,11.50
2023-02-10T13:18:33.623Z,11.77
2023-02-10T13:21:06.953Z,11.40
2023-02-10T13:23:43.643Z,11.18
2023-02-10T13:26:35.167Z,10.82
2023-02-10T13:29:20.815Z,11.20
2023-02-10T13:32:02.877Z,10.68
2023-02-10T13:34:34.544Z,10.45
2023-02-10T13:37:13.942Z,10.15
2023-02-10T13:39:51.100Z,10.85
2023-02-10T13:42:35.244Z,9.13
2023-02-10T13:45:04.870Z,10.65
2023-02-10T13:47:41.675Z,10.13
2023-02-10T13:50:14.337Z,11.48
2023-02-10T13:53:03.294Z,9.07
2023-02-10T13:55:35.853Z,9.70
2023-02-10T13:58:08.097Z,12.02
2023-02-10T14:00:51.100Z,10.30
2023-02-10T14:03:17.945Z,11.13
2023-02-10T14:06:03.332Z,11.10
2023-02-10T14:08:57.271Z,11.25
2023-02-10T14:11:42.571Z,11.23
2023-02-10T14:14:30.927Z,10.27
2023-02-10T14:17:08.756Z,9.88
2023-02-10T14:19:37.134Z,10.88
2023-02-10T14:22:05.711Z,13.65
2023-02-10T14:24:50.407Z,11.70
2023-02-10T14:27:20.153Z,10.90
2023-02-10T14:29:56.871Z,10.30
2023-02-10T14:32:26.289Z,10.68
2023-02-10T14:34:58.965Z,9.95
2023-02-10T14:37:26.584Z,10.85
2023-02-10T14:39:54.957Z,11.00
2023-02-10T14:42:23.579Z,12.02
2023-02-10T14:44:55.822Z,10.43
2023-02-10T14:47:29.140Z,11.45
2023-02-10T14:49:56.876Z,13.13
2023-02-10T14:52:37.189Z,11.40
2023-02-10T14:55:24.341Z,11.35
2023-02-10T14:57:51.108Z,11.32
2023-02-10T15:00:18.497Z,12.00
2023-02-10T15:02:52.997Z,11.60
2023-02-10T15:05:21.174Z,10.52
2023-02-10T15:07:55.121Z,10.77
2023-02-10T15:10:40.948Z,12.02
2023-02-10T15:13:09.869Z,12.95
2023-02-10T15:15:41.031Z,14.35
2023-02-10T15:18:15.441Z,14.23
2023-02-10T15:20:59.211Z,14.68
2023-02-10T15:23:32.801Z,14.65
2023-02-10T15:26:20.520Z,15.68
2023-02-10T15:28:57.672Z,14.65
2023-02-10T15:31:29.144Z,14.48
2023-02-10T15:34:17.972Z,13.82
2023-02-10T15:36:49.473Z,15.13
2023-02-10T15:39:29.483Z,15.50
2023-02-10T15:41:56.485Z,13.20
2023-02-10T15:44:39.197Z,15.40
2023-02-10T15:47:16.990Z,13.80
2023-02-10T15:49:45.721Z,13.18
2023-02-10T15:52:34.039Z,13.02
2023-02-10T15:55:04.339Z,13.90
2023-02-10T15:57:31.454Z,14.55
2023-02-10T15:59:58.350Z,14.48
2023-02-10T16:02:27.147Z,14.50
2023-02-10T16:04:54.109Z,17.40
2023-02-10T16:07:27.670Z,15.90
2023-02-10T16:09:56.022Z,15.10
2023-02-10T16:12:23.505Z,15.20
2023-02-10T16:14:50.312Z,16.00
2023-02-10T16:17:26.775Z,15.07
2023-02-10T16:19:53.778Z,15.20
2023-02-10T16:22:21.179Z,16.13
2023-02-10T16:24:49.427Z,14.82
2023-02-10T16:27:16.577Z,14.85
2023-02-10T16:29:44.560Z,14.45
2023-02-10T16:32:12.140Z,14.90
2023-02-10T16:34:38.953Z,14.00
2023-02-10T16:37:06.583Z,13.80
2023-02-10T16:39:33.343Z,15.38
2023-02-10T16:42:00.567Z,14.82
2023-02-10T16:44:27.591Z,15.48
2023-02-10T16:46:55.424Z,14.98
2023-02-10T16:49:22.120Z,14.45
2023-02-10T16:51:49.690Z,14.63
2023-02-10T16:54:16.795Z,14.07
2023-02-10T16:56:44.828Z,13.13
2023-02-10T16:59:16.425Z,13.55
2023-02-10T17:01:43.979Z,14.15
2023-02-10T17:04:11.202Z,15.48
2023-02-10T17:06:45.334Z,15.98
2023-02-10T17:09:23.514Z,15.65
2023-02-10T17:11:50.967Z,13.80
2023-02-10T17:14:18.182Z,15.55
2023-02-10T17:16:47.963Z,17.25
2023-02-10T17:19:17.044Z,16.42
2023-02-10T17:21:44.897Z,14.88
2023-02-10T17:24:12.285Z,13.75
2023-02-10T17:26:45.977Z,16.95
2023-02-10T17:29:15.533Z,16.33
2023-02-10T17:31:43.287Z,17.75
2023-02-10T17:34:11.096Z,16.70
2023-02-10T17:36:40.426Z,15.93
2023-02-10T17:39:28.916Z,17.83
2023-02-10T17:41:56.898Z,25.60
2023-02-10T17:44:24.111Z,20.17
2023-02-10T17:46:55.579Z,16.77
2023-02-10T17:49:24.888Z,16.88
2023-02-10T17:51:51.875Z,15.95
2023-02-10T17:54:20.357Z,18.38
2023-02-10T17:56:47.762Z,16.35
2023-02-10T17:59:15.168Z,16.20
2023-02-10T18:01:42.528Z,16.75
2023-02-10T18:04:11.867Z,16.48
2023-02-10T18:06:38.963Z,17.65
2023-02-10T18:09:06.017Z,16.27
2023-02-10T18:11:34.499Z,16.67
2023-02-10T18:14:02.633Z,17.52
2023-02-10T18:16:30.373Z,17.65
2023-02-10T18:18:57.176Z,18.98
2023-02-10T18:21:24.359Z,18.92
2023-02-10T18:23:51.902Z,18.73
2023-02-10T18:26:19.298Z,19.65
2023-02-10T18:28:46.254Z,19.27
2023-02-10T18:31:15.953Z,20.10
2023-02-10T18:33:43.860Z,19.65
2023-02-10T18:36:14.028Z,21.73
2023-02-10T18:38:40.723Z,24.42
2023-02-10T18:41:07.501Z,26.17
2023-02-10T18:43:34.324Z,24.58
2023-02-10T18:46:01.973Z,25.70
2023-02-10T18:48:28.929Z,24.58
2023-02-10T18:50:55.641Z,21.73
2023-02-10T18:53:22.313Z,23.83
2023-02-10T18:55:53.050Z,25.63
2023-02-10T19:00:47.708Z,21.08
2023-02-10T19:03:14.519Z,22.65
2023-02-10T19:05:41.385Z,20.55
2023-02-10T19:08:08.250Z,22.73
2023-02-10T19:10:38.142Z,21.80
2023-02-10T19:13:05.387Z,21.17
2023-02-10T19:15:32.089Z,21.08
2023-02-10T19:17:59.055Z,21.83
2023-02-10T19:20:25.744Z,22.88
2023-02-10T19:22:52.610Z,20.00
2023-02-10T19:25:19.332Z,20.58
2023-02-10T19:27:46.246Z,19.00
2023-02-10T19:30:13.111Z,22.20
2023-02-10T19:32:39.813Z,21.50
2023-02-10T19:35:06.726Z,20.27
2023-02-10T19:37:37.218Z,19.80
2023-02-10T19:40:08.262Z,20.27
2023-02-10T19:42:34.939Z,21.73
2023-02-10T19:45:01.772Z,22.05
2023-02-10T19:47:28.991Z,19.25
2023-02-10T19:49:57.624Z,20.48
2023-02-10T19:52:24.774Z,21.25
2023-02-10T19:54:51.707Z,18.95
2023-02-10T19:57:18.862Z,17.98
2023-02-10T19:59:45.616Z,17.60
2023-02-10T20:02:12.591Z,19.48
2023-02-10T20:04:39.276Z,18.58
2023-02-10T20:07:06.114Z,18.67
2023-02-10T20:09:34.393Z,18.58
2023-02-10T20:12:01.156Z,19.55
2023-02-10T20:14:28.584Z,18.92
2023-02-10T20:16:55.323Z,15.73
2023-02-10T20:19:22.039Z,19.00
2023-02-10T20:21:48.959Z,17.73
2023-02-10T20:24:15.983Z,18.75
2023-02-10T20:26:42.819Z,19.00
2023-02-10T20:29:10.775Z,18.50
2023-02-10T20:31:39.048Z,18.25
2023-02-10T20:34:06.400Z,18.45
2023-02-10T20:36:33.693Z,17.73
2023-02-10T20:39:03.810Z,19.52
2023-02-10T20:41:31.191Z,19.20
2023-02-10T20:43:57.973Z,24.15
2023-02-10T20:46:27.092Z,23.17
2023-02-10T20:48:54.552Z,20.90
2023-02-10T20:51:21.350Z,17.45
2023-02-10T20:53:48.096Z,19.40
2023-02-10T20:56:17.076Z,19.30
2023-02-10T20:58:44.295Z,18.10
2023-02-10T21:01:13.508Z,20.23
2023-02-10T21:03:40.573Z,19.23
2023-02-10T21:06:09.969Z,18.10
2023-02-10T21:08:40.567Z,18.35
2023-02-10T21:11:09.180Z,17.83
2023-02-10T21:13:36.311Z,18.80
2023-02-10T21:16:03.669Z,18.65
2023-02-10T21:18:30.399Z,17.05
2023-02-10T21:20:58.430Z,18.15
2023-02-10T21:23:25.514Z,17.40
2023-02-10T21:25:52.626Z,18.17
2023-02-10T21:28:19.833Z,18.65
2023-02-10T21:30:47.620Z,18.55
2023-02-10T21:33:15.407Z,17.05
2023-02-10T21:35:48.984Z,18.17
2023-02-10T21:38:16.720Z,17.13
2023-02-10T21:40:43.664Z,17.85
2023-02-10T21:43:10.744Z,16.48
2023-02-10T21:45:39.876Z,14.77
2023-02-10T21:48:07.206Z,16.40
2023-02-10T21:50:34.008Z,17.90
2023-02-10T21:53:00.879Z,14.73
2023-02-10T21:55:27.519Z,16.40
2023-02-10T21:57:54.232Z,16.23
2023-02-10T22:00:21.169Z,14.85
2023-02-10T22:02:47.903Z,16.30
2023-02-10T22:05:14.782Z,14.93
2023-02-10T22:07:41.527Z,14.68
2023-02-10T22:10:09.034Z,14.90
2023-02-10T22:12:35.942Z,14.85
2023-02-10T22:15:02.958Z,16.75
2023-02-10T22:17:29.691Z,14.45
2023-02-10T22:19:56.293Z,14.45
2023-02-10T22:22:23.040Z,15.25
2023-02-10T22:24:49.689Z,15.55
2023-02-10T22:27:16.347Z,15.57
2023-02-10T22:29:42.984Z,15.98
2023-02-10T22:32:09.630Z,17.10
2023-02-10T22:34:36.257Z,18.35
2023-02-10T22:37:02.926Z,16.60
2023-02-10T22:39:29.530Z,15.80
2023-02-10T22:41:56.255Z,16.63
2023-02-10T22:44:22.925Z,13.70
2023-02-10T22:46:49.547Z,16.88
2023-02-10T22:49:16.226Z,18.80
2023-02-10T22:51:43.996Z,20.33
2023-02-10T22:54:13.362Z,20.58
2023-02-10T22:56:41.274Z,18.42
2023-02-10T22:59:08.516Z,16.90
2023-02-10T23:01:38.543Z,19.02
2023-02-10T23:04:07.544Z,20.90
2023-02-10T23:06:34.658Z,19.60
2023-02-10T23:09:01.389Z,19.90
2023-02-10T23:11:31.459Z,18.95
2023-02-10T23:14:01.364Z,17.17
2023-02-10T23:16:28.589Z,18.55
2023-02-10T23:18:56.227Z,15.77
2023-02-10T23:21:24.150Z,16.73
2023-02-10T23:23:51.588Z,19.95
2023-02-10T23:26:23.982Z,17.50
2023-02-10T23:28:50.653Z,17.67
2023-02-10T23:31:20.028Z,16.75
2023-02-10T23:33:48.047Z,20.27
2023-02-10T23:36:16.568Z,19.30
2023-02-10T23:38:43.207Z,19.10
2023-02-10T23:41:09.879Z,19.50
2023-02-10T23:43:36.775Z,16.67
2023-02-10T23:46:07.894Z,18.80
2023-02-10T23:48:35.406Z,15.15
2023-02-10T23:51:15.018Z,16.88
2023-02-10T23:53:42.028Z,17.85
2023-02-10T23:56:10.467Z,17.80
2023-02-10T23:58:37.144Z,16.85
